createdAt,value
2023-04-15T00:01:45.355Z,99585.84
2023-04-15T00:04:12.850Z,99569.41
2023-04-15T00:06:40.192Z,99577.16
2023-04-15T00:09:07.166Z,99573.88
2023-04-15T00:11:34.137Z,99565.81
2023-04-15T00:14:01.381Z,99564.06
2023-04-15T00:16:28.677Z,99567.00
2023-04-15T00:18:55.680Z,99562.53
2023-04-15T00:21:22.653Z,99553.63
2023-04-15T00:23:52.827Z,99546.84
2023-04-15T00:26:21.262Z,99550.19
2023-04-15T00:28:50.598Z,99551.72
2023-04-15T00:31:18.019Z,99558.16
2023-04-15T00:33:46.272Z,99558.91
2023-04-15T00:36:14.128Z,99561.59
2023-04-15T00:38:41.440Z,99568.72
2023-04-15T00:41:09.613Z,99571.13
2023-04-15T00:43:36.880Z,99572.03
2023-04-15T00:46:06.157Z,99570.25
2023-04-15T00:48:33.526Z,99576.28
2023-04-15T00:51:01.133Z,99570.19
2023-04-15T00:53:28.811Z,99567.66
2023-04-15T00:55:56.688Z,99578.06
2023-04-15T00:58:24.706Z,99583.69
2023-04-15T01:00:54.532Z,99577.38
2023-04-15T01:03:21.993Z,99581.81
2023-04-15T01:05:50.661Z,99575.66
2023-04-15T01:08:17.896Z,99583.66
2023-04-15T01:10:45.887Z,99588.78
2023-04-15T01:13:13.226Z,99583.81
2023-04-15T01:15:40.850Z,99579.34
2023-04-15T01:18:08.751Z,99583.91
2023-04-15T01:20:38.359Z,99590.94
2023-04-15T01:23:06.717Z,99594.34
2023-04-15T01:25:34.851Z,99599.69
2023-04-15T01:28:02.333Z,99596.94
2023-04-15T01:30:30.111Z,99601.44
2023-04-15T01:32:57.433Z,99603.47
2023-04-15T01:35:25.308Z,99604.56
2023-04-15T01:37:52.952Z,99599.56
2023-04-15T01:40:19.925Z,99611.00
2023-04-15T01:42:47.393Z,99605.84
2023-04-15T01:45:15.832Z,99609.47
2023-04-15T01:47:44.024Z,99608.38
2023-04-15T01:50:11.523Z,99599.72
2023-04-15T01:52:38.936Z,99616.44
2023-04-15T01:55:09.731Z,99612.31
2023-04-15T01:57:37.298Z,99610.63
2023-04-15T02:00:04.713Z,99614.25
2023-04-15T02:02:40.911Z,99619.78
2023-04-15T02:05:08.962Z,99616.06
2023-04-15T02:07:38.108Z,99616.25
2023-04-15T02:10:05.743Z,99610.97
2023-04-15T02:12:35.483Z,99613.00
2023-04-15T02:15:02.343Z,99603.22
2023-04-15T02:17:29.647Z,99613.81
2023-04-15T02:19:57.124Z,99611.22
2023-04-15T02:22:25.111Z,99618.25
2023-04-15T02:24:51.881Z,99626.00
2023-04-15T02:27:19.150Z,99620.91
2023-04-15T02:29:46.692Z,99622.78
2023-04-15T02:32:14.513Z,99626.06
2023-04-15T02:34:42.964Z,99626.94
2023-04-15T02:37:12.161Z,99630.31
2023-04-15T02:39:39.588Z,99628.16
2023-04-15T02:42:06.643Z,99632.47
2023-04-15T02:44:35.499Z,99640.56
2023-04-15T02:47:06.793Z,99632.41
2023-04-15T02:49:34.323Z,99627.16
2023-04-15T02:52:01.835Z,99637.94
2023-04-15T02:54:29.834Z,99629.28
2023-04-15T02:56:58.026Z,99633.38
2023-04-15T02:59:26.134Z,99634.50
2023-04-15T03:01:53.230Z,99627.50
2023-04-15T03:04:20.683Z,99627.81
2023-04-15T03:06:47.930Z,99633.97
2023-04-15T03:09:15.887Z,99631.09
2023-04-15T03:11:43.916Z,99627.66
2023-04-15T03:14:11.867Z,99633.72
2023-04-15T03:16:43.883Z,99617.13
2023-04-15T03:19:12.055Z,99631.19
2023-04-15T03:21:42.273Z,99632.19
2023-04-15T03:24:10.125Z,99638.09
2023-04-15T03:26:37.884Z,99638.94
2023-04-15T03:29:11.517Z,99635.66
2023-04-15T03:31:40.171Z,99633.72
2023-04-15T03:34:07.549Z,99642.38
2023-04-15T03:36:35.224Z,99638.34
2023-04-15T03:39:05.341Z,99641.81
2023-04-15T03:41:33.093Z,99640.81
2023-04-15T03:44:03.227Z,99653.44
2023-04-15T03:46:30.418Z,99651.56
2023-04-15T03:48:57.906Z,99662.19
2023-04-15T03:51:25.165Z,99660.25
2023-04-15T03:53:52.999Z,99651.41
2023-04-15T03:56:21.252Z,99658.63
2023-04-15T03:58:49.626Z,99662.31
2023-04-15T04:01:17.011Z,99661.94
2023-04-15T04:03:44.592Z,99662.16
2023-04-15T04:06:12.824Z,99666.41
2023-04-15T04:08:40.438Z,99665.56
2023-04-15T04:11:08.047Z,99661.16
2023-04-15T04:13:36.166Z,99664.53
2023-04-15T04:16:04.975Z,99665.13
2023-04-15T04:18:33.862Z,99661.75
2023-04-15T04:21:01.475Z,99661.75
2023-04-15T04:23:29.476Z,99668.50
2023-04-15T04:25:57.210Z,99664.09
2023-04-15T04:28:25.629Z,99653.19
2023-04-15T04:30:53.752Z,99652.81
2023-04-15T04:33:21.531Z,99649.31
2023-04-15T04:35:49.202Z,99646.38
2023-04-15T04:38:16.783Z,99658.47
2023-04-15T04:40:44.847Z,99654.97
2023-04-15T04:43:13.556Z,99652.91
2023-04-15T04:45:41.405Z,99650.81
2023-04-15T04:48:11.159Z,99659.19
2023-04-15T04:50:40.072Z,99663.47
2023-04-15T04:53:07.429Z,99667.69
2023-04-15T04:55:37.585Z,99652.16
2023-04-15T04:58:05.532Z,99661.50
2023-04-15T05:00:33.279Z,99661.50
2023-04-15T05:03:01.616Z,99668.56
2023-04-15T05:05:29.738Z,99668.25
2023-04-15T05:07:58.591Z,99669.81
2023-04-15T05:10:27.246Z,99667.75
2023-04-15T05:12:54.104Z,99675.16
2023-04-15T05:15:21.114Z,99668.19
2023-04-15T05:17:47.969Z,99676.69
2023-04-15T05:20:15.999Z,99677.31
2023-04-15T05:22:43.512Z,99674.50
2023-04-15T05:25:10.663Z,99675.16
2023-04-15T05:27:38.075Z,99680.97
2023-04-15T05:30:07.467Z,99675.66
2023-04-15T05:32:35.078Z,99669.66
2023-04-15T05:35:02.465Z,99680.97
2023-04-15T05:37:29.242Z,99677.47
2023-04-15T05:39:57.288Z,99677.63
2023-04-15T05:42:24.691Z,99680.41
2023-04-15T05:44:52.287Z,99675.06
2023-04-15T05:47:19.617Z,99683.97
2023-04-15T05:49:47.101Z,99682.41
2023-04-15T05:52:14.669Z,99688.81
2023-04-15T05:54:42.128Z,99684.31
2023-04-15T05:57:09.427Z,99691.09
2023-04-15T05:59:36.987Z,99691.66
2023-04-15T06:02:04.214Z,99689.03
2023-04-15T06:04:32.988Z,99687.78
2023-04-15T06:07:00.364Z,99694.13
2023-04-15T06:09:29.180Z,99687.31
2023-04-15T06:11:57.918Z,99697.53
2023-04-15T06:14:25.148Z,99706.06
2023-04-15T06:16:52.644Z,99694.50
2023-04-15T06:19:20.675Z,99694.00
2023-04-15T06:21:48.689Z,99707.34
2023-04-15T06:24:16.022Z,99697.78
2023-04-15T06:26:43.217Z,99708.19
2023-04-15T06:29:10.495Z,99712.22
2023-04-15T06:31:38.055Z,99709.81
2023-04-15T06:34:05.780Z,99703.19
2023-04-15T06:36:33.491Z,99711.34
2023-04-15T06:39:01.931Z,99705.06
2023-04-15T06:41:29.200Z,99710.41
2023-04-15T06:43:56.551Z,99705.13
2023-04-15T06:46:24.563Z,99714.00
2023-04-15T06:48:52.822Z,99707.41
2023-04-15T06:51:20.352Z,99710.31
2023-04-15T06:53:47.535Z,99707.44
2023-04-15T06:56:14.341Z,99708.63
2023-04-15T06:58:41.370Z,99703.22
2023-04-15T07:01:08.521Z,99707.03
2023-04-15T07:03:36.148Z,99706.97
2023-04-15T07:06:06.598Z,99704.53
2023-04-15T07:08:34.563Z,99697.56
2023-04-15T07:11:03.166Z,99697.31
2023-04-15T07:13:32.466Z,99704.41
2023-04-15T07:15:59.989Z,99706.19
2023-04-15T07:18:28.990Z,99709.38
2023-04-15T07:20:58.404Z,99703.84
2023-04-15T07:23:25.546Z,99713.88
2023-04-15T07:25:53.383Z,99719.41
2023-04-15T07:28:20.975Z,99716.44
2023-04-15T07:30:48.670Z,99715.88
2023-04-15T07:33:16.571Z,99718.13
2023-04-15T07:35:43.672Z,99715.94
2023-04-15T07:38:13.119Z,99727.78
2023-04-15T07:40:40.980Z,99718.63
2023-04-15T07:43:09.062Z,99722.88
2023-04-15T07:45:36.614Z,99710.91
2023-04-15T07:48:04.260Z,99714.00
2023-04-15T07:50:32.351Z,99715.38
2023-04-15T07:53:00.872Z,99724.13
2023-04-15T07:55:28.367Z,99731.34
2023-04-15T07:57:55.591Z,99735.00
2023-04-15T08:00:23.059Z,99738.72
2023-04-15T08:02:50.678Z,99742.00
2023-04-15T08:05:18.185Z,99740.03
2023-04-15T08:07:45.745Z,99748.09
2023-04-15T08:10:12.931Z,99725.34
2023-04-15T08:12:40.457Z,99731.97
2023-04-15T08:15:08.760Z,99731.84
2023-04-15T08:17:36.263Z,99734.25
2023-04-15T08:20:04.926Z,99733.66
2023-04-15T08:22:31.881Z,99739.22
2023-04-15T08:25:00.169Z,99737.22
2023-04-15T08:27:27.765Z,99735.59
2023-04-15T08:29:55.212Z,99733.09
2023-04-15T08:32:22.826Z,99728.28
2023-04-15T08:34:50.509Z,99738.63
2023-04-15T08:37:18.114Z,99736.34
2023-04-15T08:39:46.343Z,99728.34
2023-04-15T08:42:18.759Z,99732.72
2023-04-15T08:44:47.015Z,99738.50
2023-04-15T08:47:15.154Z,99734.13
2023-04-15T08:49:43.839Z,99739.06
2023-04-15T08:52:12.674Z,99748.41
2023-04-15T08:54:40.044Z,99744.44
2023-04-15T08:57:07.403Z,99740.09
2023-04-15T08:59:34.162Z,99729.09
2023-04-15T09:02:01.407Z,99733.81
2023-04-15T09:04:28.546Z,99744.81
2023-04-15T09:06:55.466Z,99737.75
2023-04-15T09:09:22.767Z,99746.53
2023-04-15T09:11:51.459Z,99751.47
2023-04-15T09:14:18.825Z,99755.69
2023-04-15T09:16:58.850Z,99757.56
2023-04-15T09:19:26.287Z,99769.28
2023-04-15T09:21:59.153Z,99758.47
2023-04-15T09:24:37.563Z,99757.84
2023-04-15T09:27:04.911Z,99746.25
2023-04-15T09:29:32.677Z,99745.56
2023-04-15T09:32:16.650Z,99760.00
2023-04-15T09:34:45.047Z,99765.63
2023-04-15T09:37:28.614Z,99769.00
2023-04-15T09:39:59.253Z,99770.53
2023-04-15T09:42:27.347Z,99770.63
2023-04-15T09:44:54.522Z,99773.34
2023-04-15T09:47:32.589Z,99775.31
2023-04-15T09:50:01.485Z,99763.50
2023-04-15T09:52:29.210Z,99769.56
2023-04-15T09:55:01.121Z,99759.16
2023-04-15T09:57:39.176Z,99760.38
2023-04-15T10:00:08.865Z,99752.47
2023-04-15T10:02:37.189Z,99755.38
2023-04-15T10:05:05.107Z,99756.94
2023-04-15T10:07:33.560Z,99764.81
2023-04-15T10:10:02.864Z,99761.66
2023-04-15T10:12:31.352Z,99761.47
2023-04-15T10:15:07.546Z,99764.53
2023-04-15T10:17:37.317Z,99768.66
2023-04-15T10:20:05.621Z,99778.75
2023-04-15T10:22:33.408Z,99766.41
2023-04-15T10:25:01.360Z,99769.16
2023-04-15T10:27:29.337Z,99764.50
2023-04-15T10:29:57.614Z,99764.00
2023-04-15T10:32:26.605Z,99769.59
2023-04-15T10:34:55.004Z,99775.00
2023-04-15T10:37:33.963Z,99773.16
2023-04-15T10:40:01.536Z,99772.34
2023-04-15T10:42:38.322Z,99777.09
2023-04-15T10:45:17.595Z,99773.38
2023-04-15T10:47:45.004Z,99771.53
2023-04-15T10:50:14.896Z,99771.63
2023-04-15T10:52:42.689Z,99790.53
2023-04-15T10:55:18.078Z,99779.56
2023-04-15T10:57:46.176Z,99786.78
2023-04-15T11:00:15.966Z,99781.66
2023-04-15T11:02:53.018Z,99778.53
2023-04-15T11:05:22.085Z,99777.25
2023-04-15T11:07:53.990Z,99777.88
2023-04-15T11:10:21.568Z,99784.06
2023-04-15T11:12:52.601Z,99778.72
2023-04-15T11:15:33.202Z,99767.84
2023-04-15T11:18:10.367Z,99774.44
2023-04-15T11:20:39.257Z,99773.03
2023-04-15T11:23:13.855Z,99779.00
2023-04-15T11:25:44.241Z,99766.47
2023-04-15T11:28:13.153Z,99776.19
2023-04-15T11:30:41.302Z,99788.38
2023-04-15T11:33:10.351Z,99784.50
2023-04-15T11:35:41.850Z,99783.81
2023-04-15T11:38:16.835Z,99772.25
2023-04-15T11:40:46.845Z,99777.34
2023-04-15T11:43:17.293Z,99763.41
2023-04-15T11:45:58.936Z,99775.69
2023-04-15T11:48:34.098Z,99778.53
2023-04-15T11:51:06.327Z,99771.22
2023-04-15T11:53:52.664Z,99772.34
2023-04-15T11:56:25.197Z,99766.25
2023-04-15T11:58:53.864Z,99773.34
2023-04-15T12:01:21.511Z,99756.22
2023-04-15T12:03:50.313Z,99764.97
2023-04-15T12:06:19.832Z,99763.38
2023-04-15T12:09:02.031Z,99763.84
2023-04-15T12:11:36.810Z,99762.34
2023-04-15T12:14:05.702Z,99751.03
2023-04-15T12:16:37.246Z,99748.50
2023-04-15T12:19:18.001Z,99746.94
2023-04-15T12:21:50.681Z,99732.56
2023-04-15T12:24:22.655Z,99734.91
2023-04-15T12:26:55.291Z,99734.38
2023-04-15T12:29:26.125Z,99727.38
2023-04-15T12:31:59.358Z,99723.72
2023-04-15T12:34:35.900Z,99724.41
2023-04-15T12:37:05.749Z,99716.06
2023-04-15T12:39:37.340Z,99734.22
2023-04-15T12:42:06.192Z,99733.13
2023-04-15T12:44:36.420Z,99731.22
2023-04-15T12:47:04.072Z,99723.28
2023-04-15T12:49:33.036Z,99733.72
2023-04-15T12:52:02.208Z,99736.56
2023-04-15T12:54:30.871Z,99731.88
2023-04-15T12:56:59.698Z,99738.06
2023-04-15T12:59:27.671Z,99731.88
2023-04-15T13:01:55.381Z,99729.09
2023-04-15T13:04:23.606Z,99728.44
2023-04-15T13:06:50.968Z,99729.19
2023-04-15T13:09:18.293Z,99732.41
2023-04-15T13:11:45.665Z,99731.25
2023-04-15T13:14:13.250Z,99733.19
2023-04-15T13:16:41.850Z,99723.09
2023-04-15T13:19:08.993Z,99710.00
2023-04-15T13:21:36.642Z,99727.69
2023-04-15T13:24:05.562Z,99730.53
2023-04-15T13:26:33.025Z,99729.19
2023-04-15T13:29:01.685Z,99730.25
2023-04-15T13:31:29.510Z,99739.78
2023-04-15T13:33:57.994Z,99742.97
2023-04-15T13:36:26.512Z,99741.88
2023-04-15T13:38:53.762Z,99737.75
2023-04-15T13:41:21.437Z,99746.84
2023-04-15T13:43:48.609Z,99740.03
2023-04-15T13:46:16.061Z,99740.31
2023-04-15T13:48:43.651Z,99739.25
2023-04-15T13:51:11.154Z,99725.44
2023-04-15T13:53:39.738Z,99721.25
2023-04-15T13:56:10.478Z,99732.19
2023-04-15T13:58:38.392Z,99733.78
2023-04-15T14:01:07.435Z,99755.19
2023-04-15T14:03:38.007Z,99759.91
2023-04-15T14:06:06.778Z,99776.53
2023-04-15T14:08:34.311Z,99774.94
2023-04-15T14:11:01.775Z,99765.66
2023-04-15T14:13:29.393Z,99762.19
2023-04-15T14:15:57.413Z,99770.03
2023-04-15T14:18:24.294Z,99765.53
2023-04-15T14:20:52.056Z,99773.63
2023-04-15T14:23:19.582Z,99778.94
2023-04-15T14:25:48.394Z,99786.00
2023-04-15T14:28:16.199Z,99785.19
2023-04-15T14:30:43.758Z,99786.41
2023-04-15T14:33:11.542Z,99787.25
2023-04-15T14:35:39.304Z,99789.78
2023-04-15T14:38:11.033Z,99799.47
2023-04-15T14:40:38.538Z,99792.59
2023-04-15T14:43:05.982Z,99795.09
2023-04-15T14:45:34.080Z,99796.97
2023-04-15T14:48:01.729Z,99795.94
2023-04-15T14:50:29.350Z,99797.72
2023-04-15T14:52:56.588Z,99791.69
2023-04-15T14:55:23.631Z,99805.00
2023-04-15T14:57:51.027Z,99798.66
2023-04-15T15:00:18.090Z,99795.91
2023-04-15T15:02:47.637Z,99784.56
2023-04-15T15:05:14.888Z,99792.50
2023-04-15T15:07:42.118Z,99793.25
2023-04-15T15:10:09.652Z,99786.19
2023-04-15T15:12:36.703Z,99790.56
2023-04-15T15:15:12.383Z,99782.69
2023-04-15T15:17:43.406Z,99774.91
2023-04-15T15:20:11.387Z,99771.63
2023-04-15T15:22:38.363Z,99778.47
2023-04-15T15:25:05.843Z,99773.28
2023-04-15T15:27:33.296Z,99763.81
2023-04-15T15:30:00.867Z,99763.72
2023-04-15T15:32:28.089Z,99766.31
2023-04-15T15:34:55.587Z,99775.88
2023-04-15T15:37:22.911Z,99779.44
2023-04-15T15:39:50.996Z,99775.94
2023-04-15T15:42:19.784Z,99783.81
2023-04-15T15:44:46.780Z,99780.25
2023-04-15T15:47:14.189Z,99780.28
2023-04-15T15:49:41.828Z,99776.84
2023-04-15T15:52:09.206Z,99784.78
2023-04-15T15:54:38.049Z,99783.97
2023-04-15T15:57:05.424Z,99794.69
2023-04-15T15:59:33.510Z,99791.03
2023-04-15T16:02:02.905Z,99782.34
2023-04-15T16:04:30.011Z,99782.44
2023-04-15T16:06:57.043Z,99788.50
2023-04-15T16:09:24.477Z,99807.81
2023-04-15T16:11:52.113Z,99806.06
2023-04-15T16:14:20.186Z,99813.97
2023-04-15T16:16:48.199Z,99809.63
2023-04-15T16:19:15.312Z,99815.66
2023-04-15T16:21:43.245Z,99815.66
2023-04-15T16:24:10.677Z,99808.78
2023-04-15T16:26:37.754Z,99817.56
2023-04-15T16:29:05.381Z,99820.16
2023-04-15T16:31:33.242Z,99813.19
2023-04-15T16:34:00.556Z,99820.16
2023-04-15T16:36:28.878Z,99824.63
2023-04-15T16:38:56.028Z,99822.81
2023-04-15T16:41:22.977Z,99832.50
2023-04-15T16:43:50.510Z,99833.22
2023-04-15T16:46:17.724Z,99827.97
2023-04-15T16:48:44.992Z,99835.84
2023-04-15T16:51:11.808Z,99829.69
2023-04-15T16:53:39.081Z,99831.34
2023-04-15T16:56:06.991Z,99842.03
2023-04-15T16:58:34.756Z,99848.13
2023-04-15T17:01:01.846Z,99844.56
2023-04-15T17:03:29.403Z,99855.88
2023-04-15T17:05:57.129Z,99861.31
2023-04-15T17:08:24.308Z,99863.03
2023-04-15T17:10:52.021Z,99866.41
2023-04-15T17:13:19.184Z,99855.13
2023-04-15T17:15:46.871Z,99867.44
2023-04-15T17:18:14.292Z,99861.31
2023-04-15T17:20:42.118Z,99856.00
2023-04-15T17:23:09.757Z,99856.94
2023-04-15T17:25:37.522Z,99859.69
2023-04-15T17:28:04.312Z,99852.47
2023-04-15T17:30:33.426Z,99864.81
2023-04-15T17:33:01.767Z,99863.84
2023-04-15T17:35:29.435Z,99859.41
2023-04-15T17:37:56.732Z,99871.69
2023-04-15T17:40:24.316Z,99864.56
2023-04-15T17:42:51.435Z,99858.41
2023-04-15T17:45:18.848Z,99858.47
2023-04-15T17:47:46.586Z,99862.78
2023-04-15T17:50:14.242Z,99856.63
2023-04-15T17:52:41.716Z,99847.88
2023-04-15T17:55:08.944Z,99852.16
2023-04-15T17:57:36.390Z,99850.44
2023-04-15T18:00:04.130Z,99844.25
2023-04-15T18:02:39.603Z,99830.34
2023-04-15T18:05:07.444Z,99828.63
2023-04-15T18:07:35.150Z,99823.44
2023-04-15T18:10:02.602Z,99833.75
2023-04-15T18:12:29.707Z,99843.63
2023-04-15T18:14:56.977Z,99841.72
2023-04-15T18:17:24.370Z,99846.09
2023-04-15T18:19:52.829Z,99861.97
2023-04-15T18:22:20.359Z,99871.47
2023-04-15T18:24:50.325Z,99865.41
2023-04-15T18:27:18.431Z,99872.59
2023-04-15T18:29:45.654Z,99870.78
2023-04-15T18:32:13.084Z,99868.28
2023-04-15T18:34:40.257Z,99869.03
2023-04-15T18:37:07.753Z,99871.63
2023-04-15T18:39:35.109Z,99862.94
2023-04-15T18:42:02.098Z,99877.06
2023-04-15T18:44:29.122Z,99868.16
2023-04-15T18:46:56.266Z,99864.72
2023-04-15T18:49:24.084Z,99869.09
2023-04-15T18:51:52.015Z,99870.72
2023-04-15T18:54:19.010Z,99886.44
2023-04-15T18:56:45.936Z,99888.25
2023-04-15T18:59:29.624Z,99887.47
2023-04-15T19:01:58.738Z,99897.91
2023-04-15T19:04:26.408Z,99890.06
2023-04-15T19:06:54.091Z,99889.91
2023-04-15T19:09:21.110Z,99884.69
2023-04-15T19:11:49.343Z,99885.53
2023-04-15T19:14:17.579Z,99888.09
2023-04-15T19:16:44.973Z,99886.34
2023-04-15T19:19:14.752Z,99883.63
2023-04-15T19:21:43.097Z,99884.44
2023-04-15T19:24:10.323Z,99890.56
2023-04-15T19:26:37.850Z,99887.16
2023-04-15T19:29:05.322Z,99889.78
2023-04-15T19:31:33.350Z,99893.16
2023-04-15T19:34:01.079Z,99891.28
2023-04-15T19:36:28.709Z,99894.84
2023-04-15T19:38:55.832Z,99895.59
2023-04-15T19:41:23.272Z,99907.94
2023-04-15T19:43:50.498Z,99903.41
2023-04-15T19:46:17.956Z,99904.34
2023-04-15T19:48:45.546Z,99903.41
2023-04-15T19:51:13.555Z,99913.84
2023-04-15T19:53:41.880Z,99911.91
2023-04-15T19:56:09.678Z,99908.50
2023-04-15T19:58:37.810Z,99908.31
2023-04-15T20:01:05.038Z,99913.91
2023-04-15T20:03:32.361Z,99911.88
2023-04-15T20:05:59.907Z,99912.84
2023-04-15T20:08:27.252Z,99914.44
2023-04-15T20:10:54.915Z,99907.44
2023-04-15T20:13:22.221Z,99904.66
2023-04-15T20:15:49.739Z,99899.59
2023-04-15T20:18:16.938Z,99902.94
2023-04-15T20:20:44.142Z,99907.25
2023-04-15T20:23:10.926Z,99915.09
2023-04-15T20:25:37.831Z,99914.44
2023-04-15T20:28:05.912Z,99912.53
2023-04-15T20:30:33.317Z,99907.22
2023-04-15T20:33:00.954Z,99912.44
2023-04-15T20:35:31.156Z,99920.38
2023-04-15T20:37:58.156Z,99923.72
2023-04-15T20:40:26.031Z,99919.38
2023-04-15T20:42:53.473Z,99924.72
2023-04-15T20:45:21.211Z,99918.66
2023-04-15T20:47:48.318Z,99921.09
2023-04-15T20:50:15.886Z,99918.44
2023-04-15T20:52:43.434Z,99914.13
2023-04-15T20:55:10.678Z,99913.16
2023-04-15T20:57:38.120Z,99915.66
2023-04-15T21:00:05.854Z,99914.88
2023-04-15T21:02:33.248Z,99915.81
2023-04-15T21:05:00.568Z,99913.19
2023-04-15T21:07:28.371Z,99920.16
2023-04-15T21:09:56.255Z,99919.31
2023-04-15T21:12:22.999Z,99921.97
2023-04-15T21:14:50.803Z,99920.91
2023-04-15T21:17:17.708Z,99923.63
2023-04-15T21:19:44.950Z,99925.50
2023-04-15T21:22:12.057Z,99933.22
2023-04-15T21:24:39.635Z,99933.34
2023-04-15T21:27:07.126Z,99938.56
2023-04-15T21:29:34.459Z,99932.25
2023-04-15T21:32:01.376Z,99939.22
2023-04-15T21:34:29.082Z,99934.97
2023-04-15T21:36:57.072Z,99933.03
2023-04-15T21:39:24.192Z,99940.00
2023-04-15T21:41:51.086Z,99944.38
2023-04-15T21:44:18.366Z,99937.56
2023-04-15T21:46:46.351Z,99945.22
2023-04-15T21:49:13.961Z,99950.63
2023-04-15T21:51:41.332Z,99947.88
2023-04-15T21:54:08.871Z,99947.00
2023-04-15T21:56:36.894Z,99945.28
2023-04-15T21:59:04.263Z,99947.09
2023-04-15T22:01:31.994Z,99943.84
2023-04-15T22:03:59.735Z,99953.28
2023-04-15T22:06:27.111Z,99953.25
2023-04-15T22:08:57.367Z,99958.59
2023-04-15T22:11:39.596Z,99955.06
2023-04-15T22:14:06.856Z,99953.34
2023-04-15T22:16:33.819Z,99961.16
2023-04-15T22:19:02.649Z,99953.44
2023-04-15T22:21:29.662Z,99954.47
2023-04-15T22:24:38.793Z,99953.56
2023-04-15T22:26:44.750Z,99953.34
2023-04-15T22:29:11.970Z,99951.75
2023-04-15T22:31:39.536Z,99949.06
2023-04-15T22:34:06.723Z,99953.50
2023-04-15T22:36:34.035Z,99950.69
2023-04-15T22:39:01.132Z,99949.81
2023-04-15T22:41:28.048Z,99954.94
2023-04-15T22:43:55.270Z,99954.91
2023-04-15T22:46:22.467Z,99961.88
2023-04-15T22:48:50.070Z,99953.88
2023-04-15T22:51:23.124Z,99951.28
2023-04-15T22:53:51.159Z,99961.69
2023-04-15T22:56:22.928Z,99948.38
2023-04-15T22:58:50.428Z,99959.97
2023-04-15T23:01:18.257Z,99959.03
2023-04-15T23:03:59.138Z,99965.16
2023-04-15T23:06:32.691Z,99964.34
2023-04-15T23:08:59.621Z,99971.50
2023-04-15T23:11:26.973Z,99970.44
2023-04-15T23:13:54.561Z,99968.69
2023-04-15T23:16:22.846Z,99966.06
2023-04-15T23:18:50.075Z,99968.66
2023-04-15T23:21:17.666Z,99963.41
2023-04-15T23:23:45.015Z,99967.00
2023-04-15T23:26:11.896Z,99972.34
2023-04-15T23:28:39.203Z,99971.38
2023-04-15T23:31:07.525Z,99970.44
2023-04-15T23:33:34.613Z,99976.63
2023-04-15T23:36:01.972Z,99976.66
2023-04-15T23:38:29.302Z,99976.66
2023-04-15T23:40:56.604Z,99980.13
2023-04-15T23:43:23.323Z,99983.56
2023-04-15T23:45:51.397Z,99980.06
2023-04-15T23:48:18.713Z,99973.78
2023-04-15T23:50:46.399Z,99976.34
2023-04-15T23:53:13.794Z,99983.38
2023-04-15T23:55:41.117Z,99977.16
2023-04-15T23:58:09.512Z,99974.44
